sensor_id;sensor_type;location;lat;lon;timestamp;P1;durP1;ratioP1;P2;durP2;ratioP2
71435;SDS011;59251;51.326;12.370;2022-11-11T00:03:37;12.38;;;4.00;;
71435;SDS011;59251;51.326;12.370;2022-11-11T00:06:04;11.53;;;4.20;;
71435;SDS011;59251;51.326;12.370;2022-11-11T00:08:30;13.57;;;4.07;;
71435;SDS011;59251;51.326;12.370;2022-11-11T00:11:14;12.43;;;4.60;;
71435;SDS011;59251;51.326;12.370;2022-11-11T00:13:41;11.47;;;4.07;;
71435;SDS011;59251;51.326;12.370;2022-11-11T00:16:12;16.30;;;4.72;;
71435;SDS011;59251;51.326;12.370;2022-11-11T00:18:40;12.77;;;3.90;;
71435;SDS011;59251;51.326;12.370;2022-11-11T00:21:24;10.60;;;3.65;;
71435;SDS011;59251;51.326;12.370;2022-11-11T00:24:02;19.42;;;6.70;;
71435;SDS011;59251;51.326;12.370;2022-11-11T00:26:47;14.00;;;4.47;;
71435;SDS011;59251;51.326;12.370;2022-11-11T00:29:13;12.85;;;4.10;;
71435;SDS011;59251;51.326;12.370;2022-11-11T00:31:38;13.00;;;3.67;;
71435;SDS011;59251;51.326;12.370;2022-11-11T00:34:23;13.38;;;4.18;;
71435;SDS011;59251;51.326;12.370;2022-11-11T00:36:49;13.07;;;3.90;;
71435;SDS011;59251;51.326;12.370;2022-11-11T00:39:14;13.03;;;4.50;;
71435;SDS011;59251;51.326;12.370;2022-11-11T00:41:40;12.77;;;3.90;;
71435;SDS011;59251;51.326;12.370;2022-11-11T00:44:05;12.70;;;3.97;;
71435;SDS011;59251;51.326;12.370;2022-11-11T00:46:31;11.73;;;4.07;;
71435;SDS011;59251;51.326;12.370;2022-11-11T00:49:15;13.57;;;4.10;;
71435;SDS011;59251;51.326;12.370;2022-11-11T00:51:58;12.63;;;4.55;;
71435;SDS011;59251;51.326;12.370;2022-11-11T00:54:24;10.57;;;4.03;;
71435;SDS011;59251;51.326;12.370;2022-11-11T00:56:49;10.83;;;4.17;;
71435;SDS011;59251;51.326;12.370;2022-11-11T00:59:15;14.90;;;4.73;;
71435;SDS011;59251;51.326;12.370;2022-11-11T01:01:40;12.17;;;4.20;;
71435;SDS011;59251;51.326;12.370;2022-11-11T01:04:05;16.83;;;5.20;;
71435;SDS011;59251;51.326;12.370;2022-11-11T01:06:31;14.57;;;4.43;;
71435;SDS011;59251;51.326;12.370;2022-11-11T01:08:56;13.13;;;4.30;;
71435;SDS011;59251;51.326;12.370;2022-11-11T01:11:22;14.07;;;4.27;;
71435;SDS011;59251;51.326;12.370;2022-11-11T01:13:48;11.50;;;4.50;;
71435;SDS011;59251;51.326;12.370;2022-11-11T01:16:22;14.13;;;4.47;;
71435;SDS011;59251;51.326;12.370;2022-11-11T01:18:49;11.50;;;4.13;;
71435;SDS011;59251;51.326;12.370;2022-11-11T01:21:16;17.97;;;4.87;;
71435;SDS011;59251;51.326;12.370;2022-11-11T01:23:47;12.13;;;4.35;;
71435;SDS011;59251;51.326;12.370;2022-11-11T01:26:21;13.70;;;4.32;;
71435;SDS011;59251;51.326;12.370;2022-11-11T01:28:52;10.65;;;4.35;;
71435;SDS011;59251;51.326;12.370;2022-11-11T01:31:19;16.40;;;4.78;;
71435;SDS011;59251;51.326;12.370;2022-11-11T01:33:46;12.57;;;4.17;;
71435;SDS011;59251;51.326;12.370;2022-11-11T01:36:22;11.30;;;3.92;;
71435;SDS011;59251;51.326;12.370;2022-11-11T01:38:50;11.00;;;4.57;;
71435;SDS011;59251;51.326;12.370;2022-11-11T01:41:19;13.30;;;4.25;;
71435;SDS011;59251;51.326;12.370;2022-11-11T01:46:41;13.27;;;4.57;;
71435;SDS011;59251;51.326;12.370;2022-11-11T01:55:04;13.48;;;4.38;;
71435;SDS011;59251;51.326;12.370;2022-11-11T01:57:43;16.83;;;4.65;;
71435;SDS011;59251;51.326;12.370;2022-11-11T02:00:15;10.27;;;4.17;;
71435;SDS011;59251;51.326;12.370;2022-11-11T02:02:43;12.55;;;4.70;;
71435;SDS011;59251;51.326;12.370;2022-11-11T02:05:13;13.75;;;4.28;;
71435;SDS011;59251;51.326;12.370;2022-11-11T02:08:00;14.13;;;4.53;;
71435;SDS011;59251;51.326;12.370;2022-11-11T02:10:29;16.38;;;4.65;;
71435;SDS011;59251;51.326;12.370;2022-11-11T02:12:57;12.80;;;4.20;;
71435;SDS011;59251;51.326;12.370;2022-11-11T02:15:41;14.10;;;4.43;;
71435;SDS011;59251;51.326;12.370;2022-11-11T02:18:07;11.60;;;4.28;;
71435;SDS011;59251;51.326;12.370;2022-11-11T02:20:33;11.60;;;4.17;;
71435;SDS011;59251;51.326;12.370;2022-11-11T02:23:15;13.30;;;4.30;;
71435;SDS011;59251;51.326;12.370;2022-11-11T02:25:52;10.90;;;4.18;;
71435;SDS011;59251;51.326;12.370;2022-11-11T02:28:21;12.17;;;4.90;;
71435;SDS011;59251;51.326;12.370;2022-11-11T02:30:49;11.55;;;4.40;;
71435;SDS011;59251;51.326;12.370;2022-11-11T02:33:14;12.13;;;4.17;;
71435;SDS011;59251;51.326;12.370;2022-11-11T02:35:41;12.20;;;4.60;;
71435;SDS011;59251;51.326;12.370;2022-11-11T02:38:09;10.37;;;4.43;;
71435;SDS011;59251;51.326;12.370;2022-11-11T02:40:39;10.52;;;4.13;;
71435;SDS011;59251;51.326;12.370;2022-11-11T02:43:24;13.02;;;4.43;;
71435;SDS011;59251;51.326;12.370;2022-11-11T02:45:50;15.87;;;4.57;;
71435;SDS011;59251;51.326;12.370;2022-11-11T02:48:15;17.25;;;4.43;;
71435;SDS011;59251;51.326;12.370;2022-11-11T02:50:41;12.87;;;4.07;;
71435;SDS011;59251;51.326;12.370;2022-11-11T02:53:06;14.83;;;4.53;;
71435;SDS011;59251;51.326;12.370;2022-11-11T02:55:32;12.90;;;4.43;;
71435;SDS011;59251;51.326;12.370;2022-11-11T02:57:57;12.00;;;3.97;;
71435;SDS011;59251;51.326;12.370;2022-11-11T03:00:23;10.90;;;4.15;;
71435;SDS011;59251;51.326;12.370;2022-11-11T03:02:48;12.83;;;4.07;;
71435;SDS011;59251;51.326;12.370;2022-11-11T03:05:13;10.97;;;4.07;;
71435;SDS011;59251;51.326;12.370;2022-11-11T03:07:39;10.87;;;4.17;;
71435;SDS011;59251;51.326;12.370;2022-11-11T03:10:04;14.50;;;4.40;;
71435;SDS011;59251;51.326;12.370;2022-11-11T03:12:30;12.10;;;4.13;;
71435;SDS011;59251;51.326;12.370;2022-11-11T03:14:56;14.85;;;4.45;;
71435;SDS011;59251;51.326;12.370;2022-11-11T03:17:21;13.57;;;4.50;;
71435;SDS011;59251;51.326;12.370;2022-11-11T03:20:06;12.00;;;4.38;;
71435;SDS011;59251;51.326;12.370;2022-11-11T03:23:28;15.80;;;5.10;;
71435;SDS011;59251;51.326;12.370;2022-11-11T03:25:46;12.23;;;4.22;;
71435;SDS011;59251;51.326;12.370;2022-11-11T03:30:45;12.07;;;4.43;;
71435;SDS011;59251;51.326;12.370;2022-11-11T03:33:13;14.32;;;5.05;;
71435;SDS011;59251;51.326;12.370;2022-11-11T03:35:39;13.60;;;4.67;;
71435;SDS011;59251;51.326;12.370;2022-11-11T03:38:06;13.15;;;4.70;;
71435;SDS011;59251;51.326;12.370;2022-11-11T03:40:43;13.82;;;4.20;;
71435;SDS011;59251;51.326;12.370;2022-11-11T03:43:13;12.35;;;4.55;;
71435;SDS011;59251;51.326;12.370;2022-11-11T03:45:41;14.63;;;5.50;;
71435;SDS011;59251;51.326;12.370;2022-11-11T03:48:07;13.20;;;5.30;;
71435;SDS011;59251;51.326;12.370;2022-11-11T03:50:33;13.98;;;4.85;;
71435;SDS011;59251;51.326;12.370;2022-11-11T03:52:58;13.93;;;5.20;;
71435;SDS011;59251;51.326;12.370;2022-11-11T03:55:24;16.45;;;6.13;;
71435;SDS011;59251;51.326;12.370;2022-11-11T03:57:50;15.07;;;5.47;;
71435;SDS011;59251;51.326;12.370;2022-11-11T04:00:20;15.98;;;4.55;;
71435;SDS011;59251;51.326;12.370;2022-11-11T04:02:50;14.00;;;5.00;;
71435;SDS011;59251;51.326;12.370;2022-11-11T04:05:34;13.55;;;4.40;;
71435;SDS011;59251;51.326;12.370;2022-11-11T04:08:19;14.88;;;4.80;;
71435;SDS011;59251;51.326;12.370;2022-11-11T04:11:14;14.80;;;4.47;;
71435;SDS011;59251;51.326;12.370;2022-11-11T04:13:45;12.50;;;4.55;;
71435;SDS011;59251;51.326;12.370;2022-11-11T04:16:32;13.73;;;4.67;;
71435;SDS011;59251;51.326;12.370;2022-11-11T04:18:57;15.68;;;4.47;;
71435;SDS011;59251;51.326;12.370;2022-11-11T04:21:41;16.67;;;4.70;;
71435;SDS011;59251;51.326;12.370;2022-11-11T04:24:16;16.40;;;4.05;;
71435;SDS011;59251;51.326;12.370;2022-11-11T04:27:02;12.85;;;4.35;;
71435;SDS011;59251;51.326;12.370;2022-11-11T04:29:32;15.70;;;4.57;;
71435;SDS011;59251;51.326;12.370;2022-11-11T04:32:02;14.52;;;4.15;;
71435;SDS011;59251;51.326;12.370;2022-11-11T04:34:56;11.32;;;3.92;;
71435;SDS011;59251;51.326;12.370;2022-11-11T04:37:33;11.45;;;3.83;;
71435;SDS011;59251;51.326;12.370;2022-11-11T04:40:00;13.30;;;4.20;;
71435;SDS011;59251;51.326;12.370;2022-11-11T04:42:44;11.47;;;3.77;;
71435;SDS011;59251;51.326;12.370;2022-11-11T04:45:10;13.38;;;4.18;;
71435;SDS011;59251;51.326;12.370;2022-11-11T04:47:53;13.93;;;4.22;;
71435;SDS011;59251;51.326;12.370;2022-11-11T04:50:23;15.98;;;4.20;;
71435;SDS011;59251;51.326;12.370;2022-11-11T04:52:50;13.25;;;5.15;;
71435;SDS011;59251;51.326;12.370;2022-11-11T04:55:15;15.70;;;4.47;;
71435;SDS011;59251;51.326;12.370;2022-11-11T04:58:00;12.60;;;4.45;;
71435;SDS011;59251;51.326;12.370;2022-11-11T05:00:25;13.97;;;4.57;;
71435;SDS011;59251;51.326;12.370;2022-11-11T05:02:54;14.17;;;3.80;;
71435;SDS011;59251;51.326;12.370;2022-11-11T05:05:39;9.60;;;4.30;;
71435;SDS011;59251;51.326;12.370;2022-11-11T05:08:24;10.40;;;4.22;;
71435;SDS011;59251;51.326;12.370;2022-11-11T05:11:08;12.80;;;3.95;;
71435;SDS011;59251;51.326;12.370;2022-11-11T05:13:34;15.00;;;4.10;;
71435;SDS011;59251;51.326;12.370;2022-11-11T05:16:21;11.90;;;4.15;;
71435;SDS011;59251;51.326;12.370;2022-11-11T05:19:10;17.53;;;5.00;;
71435;SDS011;59251;51.326;12.370;2022-11-11T05:21:55;16.20;;;4.13;;
71435;SDS011;59251;51.326;12.370;2022-11-11T05:24:25;12.43;;;4.20;;
71435;SDS011;59251;51.326;12.370;2022-11-11T05:27:09;11.98;;;3.75;;
71435;SDS011;59251;51.326;12.370;2022-11-11T05:29:34;11.50;;;3.93;;
71435;SDS011;59251;51.326;12.370;2022-11-11T05:32:00;12.13;;;3.43;;
71435;SDS011;59251;51.326;12.370;2022-11-11T05:34:25;13.25;;;3.40;;
71435;SDS011;59251;51.326;12.370;2022-11-11T05:36:51;10.83;;;3.33;;
71435;SDS011;59251;51.326;12.370;2022-11-11T05:39:16;10.73;;;3.80;;
71435;SDS011;59251;51.326;12.370;2022-11-11T05:41:42;20.90;;;4.25;;
71435;SDS011;59251;51.326;12.370;2022-11-11T05:44:07;15.30;;;3.73;;
71435;SDS011;59251;51.326;12.370;2022-11-11T05:46:32;9.47;;;3.60;;
71435;SDS011;59251;51.326;12.370;2022-11-11T05:48:58;10.77;;;3.80;;
71435;SDS011;59251;51.326;12.370;2022-11-11T05:51:45;13.13;;;3.30;;
71435;SDS011;59251;51.326;12.370;2022-11-11T05:54:11;9.80;;;2.83;;
71435;SDS011;59251;51.326;12.370;2022-11-11T05:56:37;10.15;;;3.05;;
71435;SDS011;59251;51.326;12.370;2022-11-11T05:59:03;14.47;;;3.37;;
71435;SDS011;59251;51.326;12.370;2022-11-11T06:01:29;10.85;;;3.15;;
71435;SDS011;59251;51.326;12.370;2022-11-11T06:03:55;10.80;;;2.70;;
71435;SDS011;59251;51.326;12.370;2022-11-11T06:06:21;11.88;;;3.30;;
71435;SDS011;59251;51.326;12.370;2022-11-11T06:08:46;11.23;;;2.97;;
71435;SDS011;59251;51.326;12.370;2022-11-11T06:11:11;11.67;;;3.43;;
71435;SDS011;59251;51.326;12.370;2022-11-11T06:13:37;10.80;;;3.42;;
71435;SDS011;59251;51.326;12.370;2022-11-11T06:16:03;10.47;;;2.57;;
71435;SDS011;59251;51.326;12.370;2022-11-11T06:18:29;14.18;;;2.80;;
71435;SDS011;59251;51.326;12.370;2022-11-11T06:20:55;11.50;;;2.90;;
71435;SDS011;59251;51.326;12.370;2022-11-11T06:23:22;8.63;;;2.75;;
71435;SDS011;59251;51.326;12.370;2022-11-11T06:25:48;8.27;;;2.95;;
71435;SDS011;59251;51.326;12.370;2022-11-11T06:28:32;9.87;;;2.63;;
71435;SDS011;59251;51.326;12.370;2022-11-11T06:30:58;11.63;;;3.13;;
71435;SDS011;59251;51.326;12.370;2022-11-11T06:33:23;11.67;;;3.00;;
71435;SDS011;59251;51.326;12.370;2022-11-11T06:35:49;10.13;;;2.80;;
71435;SDS011;59251;51.326;12.370;2022-11-11T06:38:15;12.45;;;2.78;;
71435;SDS011;59251;51.326;12.370;2022-11-11T06:40:41;13.75;;;3.17;;
71435;SDS011;59251;51.326;12.370;2022-11-11T06:43:07;12.13;;;3.10;;
71435;SDS011;59251;51.326;12.370;2022-11-11T06:45:33;11.20;;;2.90;;
71435;SDS011;59251;51.326;12.370;2022-11-11T06:48:00;10.57;;;2.60;;
71435;SDS011;59251;51.326;12.370;2022-11-11T06:50:32;14.68;;;2.90;;
71435;SDS011;59251;51.326;12.370;2022-11-11T06:53:07;8.70;;;2.47;;
71435;SDS011;59251;51.326;12.370;2022-11-11T06:55:35;12.73;;;3.03;;
71435;SDS011;59251;51.326;12.370;2022-11-11T06:58:07;11.65;;;2.65;;
71435;SDS011;59251;51.326;12.370;2022-11-11T07:00:37;12.85;;;4.13;;
71435;SDS011;59251;51.326;12.370;2022-11-11T07:03:03;12.73;;;2.88;;
71435;SDS011;59251;51.326;12.370;2022-11-11T07:05:31;10.65;;;2.38;;
71435;SDS011;59251;51.326;12.370;2022-11-11T07:07:59;12.00;;;3.27;;
71435;SDS011;59251;51.326;12.370;2022-11-11T07:10:26;9.82;;;2.53;;
71435;SDS011;59251;51.326;12.370;2022-11-11T07:12:52;11.83;;;2.60;;
71435;SDS011;59251;51.326;12.370;2022-11-11T07:15:17;12.35;;;2.65;;
71435;SDS011;59251;51.326;12.370;2022-11-11T07:17:43;8.50;;;2.40;;
71435;SDS011;59251;51.326;12.370;2022-11-11T07:20:08;9.63;;;2.13;;
71435;SDS011;59251;51.326;12.370;2022-11-11T07:22:34;10.93;;;5.78;;
71435;SDS011;59251;51.326;12.370;2022-11-11T07:25:01;9.48;;;2.67;;
71435;SDS011;59251;51.326;12.370;2022-11-11T07:27:26;8.60;;;1.80;;
71435;SDS011;59251;51.326;12.370;2022-11-11T07:29:52;12.20;;;2.83;;
71435;SDS011;59251;51.326;12.370;2022-11-11T07:32:17;10.80;;;2.25;;
71435;SDS011;59251;51.326;12.370;2022-11-11T07:34:43;10.48;;;2.72;;
71435;SDS011;59251;51.326;12.370;2022-11-11T07:37:08;10.60;;;2.33;;
71435;SDS011;59251;51.326;12.370;2022-11-11T07:39:34;10.60;;;2.33;;
71435;SDS011;59251;51.326;12.370;2022-11-11T07:42:00;11.80;;;2.83;;
71435;SDS011;59251;51.326;12.370;2022-11-11T07:44:25;15.53;;;2.40;;
71435;SDS011;59251;51.326;12.370;2022-11-11T07:46:50;9.48;;;2.55;;
71435;SDS011;59251;51.326;12.370;2022-11-11T07:49:16;10.73;;;2.35;;
71435;SDS011;59251;51.326;12.370;2022-11-11T07:51:41;8.73;;;2.30;;
71435;SDS011;59251;51.326;12.370;2022-11-11T07:54:07;8.20;;;2.10;;
71435;SDS011;59251;51.326;12.370;2022-11-11T07:56:33;11.38;;;2.03;;
71435;SDS011;59251;51.326;12.370;2022-11-11T07:58:58;11.30;;;2.30;;
71435;SDS011;59251;51.326;12.370;2022-11-11T08:01:23;7.57;;;1.80;;
71435;SDS011;59251;51.326;12.370;2022-11-11T08:03:49;9.50;;;2.37;;
71435;SDS011;59251;51.326;12.370;2022-11-11T08:06:15;7.53;;;1.88;;
71435;SDS011;59251;51.326;12.370;2022-11-11T08:08:42;7.87;;;1.80;;
71435;SDS011;59251;51.326;12.370;2022-11-11T08:11:07;7.57;;;1.95;;
71435;SDS011;59251;51.326;12.370;2022-11-11T08:13:32;8.07;;;2.00;;
71435;SDS011;59251;51.326;12.370;2022-11-11T08:16:05;12.23;;;2.10;;
71435;SDS011;59251;51.326;12.370;2022-11-11T08:18:35;9.18;;;1.60;;
71435;SDS011;59251;51.326;12.370;2022-11-11T08:21:01;12.57;;;2.28;;
71435;SDS011;59251;51.326;12.370;2022-11-11T08:23:27;7.78;;;1.73;;
71435;SDS011;59251;51.326;12.370;2022-11-11T08:26:00;8.87;;;1.80;;
71435;SDS011;59251;51.326;12.370;2022-11-11T08:28:28;7.53;;;2.15;;
71435;SDS011;59251;51.326;12.370;2022-11-11T08:30:54;10.82;;;1.70;;
71435;SDS011;59251;51.326;12.370;2022-11-11T08:33:22;7.93;;;1.73;;
71435;SDS011;59251;51.326;12.370;2022-11-11T08:35:48;8.90;;;1.93;;
71435;SDS011;59251;51.326;12.370;2022-11-11T08:38:13;11.15;;;2.92;;
71435;SDS011;59251;51.326;12.370;2022-11-11T08:40:39;10.35;;;2.58;;
71435;SDS011;59251;51.326;12.370;2022-11-11T08:43:05;13.50;;;2.40;;
71435;SDS011;59251;51.326;12.370;2022-11-11T08:45:30;9.50;;;1.70;;
71435;SDS011;59251;51.326;12.370;2022-11-11T08:47:55;10.70;;;1.95;;
71435;SDS011;59251;51.326;12.370;2022-11-11T08:50:21;10.37;;;1.53;;
71435;SDS011;59251;51.326;12.370;2022-11-11T08:52:47;14.37;;;2.00;;
71435;SDS011;59251;51.326;12.370;2022-11-11T08:55:13;8.85;;;1.63;;
71435;SDS011;59251;51.326;12.370;2022-11-11T08:57:40;14.85;;;2.40;;
71435;SDS011;59251;51.326;12.370;2022-11-11T09:00:06;9.97;;;2.00;;
71435;SDS011;59251;51.326;12.370;2022-11-11T09:02:33;8.50;;;1.67;;
71435;SDS011;59251;51.326;12.370;2022-11-11T09:04:59;8.50;;;1.92;;
71435;SDS011;59251;51.326;12.370;2022-11-11T09:07:24;8.57;;;1.33;;
71435;SDS011;59251;51.326;12.370;2022-11-11T09:09:50;13.50;;;1.60;;
71435;SDS011;59251;51.326;12.370;2022-11-11T09:12:15;10.10;;;2.00;;
71435;SDS011;59251;51.326;12.370;2022-11-11T09:14:41;9.50;;;2.03;;
71435;SDS011;59251;51.326;12.370;2022-11-11T09:17:07;8.98;;;1.30;;
71435;SDS011;59251;51.326;12.370;2022-11-11T09:19:32;8.53;;;1.50;;
71435;SDS011;59251;51.326;12.370;2022-11-11T09:21:57;9.33;;;1.50;;
71435;SDS011;59251;51.326;12.370;2022-11-11T09:24:23;6.93;;;1.10;;
71435;SDS011;59251;51.326;12.370;2022-11-11T09:26:49;8.27;;;1.52;;
71435;SDS011;59251;51.326;12.370;2022-11-11T09:29:15;4.88;;;1.00;;
71435;SDS011;59251;51.326;12.370;2022-11-11T09:31:41;9.73;;;1.25;;
71435;SDS011;59251;51.326;12.370;2022-11-11T09:34:07;8.65;;;1.60;;
71435;SDS011;59251;51.326;12.370;2022-11-11T09:36:33;8.23;;;1.97;;
71435;SDS011;59251;51.326;12.370;2022-11-11T09:38:58;7.53;;;1.50;;
71435;SDS011;59251;51.326;12.370;2022-11-11T09:41:41;11.18;;;1.50;;
71435;SDS011;59251;51.326;12.370;2022-11-11T09:47:31;13.80;;;1.50;;
71435;SDS011;59251;51.326;12.370;2022-11-11T09:50:15;10.63;;;1.50;;
71435;SDS011;59251;51.326;12.370;2022-11-11T10:00:56;7.47;;;1.38;;
71435;SDS011;59251;51.326;12.370;2022-11-11T10:03:26;8.45;;;1.60;;
71435;SDS011;59251;51.326;12.370;2022-11-11T10:08:47;8.48;;;1.50;;
71435;SDS011;59251;51.326;12.370;2022-11-11T10:14:19;6.82;;;1.10;;
71435;SDS011;59251;51.326;12.370;2022-11-11T10:16:53;6.03;;;0.97;;
71435;SDS011;59251;51.326;12.370;2022-11-11T10:20:02;7.78;;;1.00;;
71435;SDS011;59251;51.326;12.370;2022-11-11T10:23:13;8.40;;;1.30;;
71435;SDS011;59251;51.326;12.370;2022-11-11T10:25:53;6.85;;;1.00;;
71435;SDS011;59251;51.326;12.370;2022-11-11T10:28:20;7.22;;;1.40;;
71435;SDS011;59251;51.326;12.370;2022-11-11T10:30:49;6.57;;;1.00;;
71435;SDS011;59251;51.326;12.370;2022-11-11T10:33:23;9.40;;;1.30;;
71435;SDS011;59251;51.326;12.370;2022-11-11T10:35:53;9.82;;;1.35;;
71435;SDS011;59251;51.326;12.370;2022-11-11T10:38:25;5.63;;;1.20;;
71435;SDS011;59251;51.326;12.370;2022-11-11T10:41:42;8.68;;;1.60;;
71435;SDS011;59251;51.326;12.370;2022-11-11T10:43:53;8.57;;;1.25;;
71435;SDS011;59251;51.326;12.370;2022-11-11T10:46:21;6.30;;;1.30;;
71435;SDS011;59251;51.326;12.370;2022-11-11T10:48:55;7.18;;;1.00;;
71435;SDS011;59251;51.326;12.370;2022-11-11T10:51:26;6.30;;;1.20;;
71435;SDS011;59251;51.326;12.370;2022-11-11T10:56:51;12.13;;;1.67;;
71435;SDS011;59251;51.326;12.370;2022-11-11T10:59:25;7.25;;;1.10;;
71435;SDS011;59251;51.326;12.370;2022-11-11T11:01:59;8.85;;;1.38;;
71435;SDS011;59251;51.326;12.370;2022-11-11T11:04:38;6.70;;;1.30;;
71435;SDS011;59251;51.326;12.370;2022-11-11T11:07:10;7.18;;;1.25;;
71435;SDS011;59251;51.326;12.370;2022-11-11T11:09:41;7.13;;;1.13;;
71435;SDS011;59251;51.326;12.370;2022-11-11T11:14:58;7.17;;;1.17;;
71435;SDS011;59251;51.326;12.370;2022-11-11T11:17:38;5.13;;;0.75;;
71435;SDS011;59251;51.326;12.370;2022-11-11T11:20:14;6.38;;;0.73;;
71435;SDS011;59251;51.326;12.370;2022-11-11T11:22:47;6.68;;;0.95;;
71435;SDS011;59251;51.326;12.370;2022-11-11T11:25:23;4.72;;;0.77;;
71435;SDS011;59251;51.326;12.370;2022-11-11T11:27:50;6.97;;;1.15;;
71435;SDS011;59251;51.326;12.370;2022-11-11T11:30:21;6.43;;;0.70;;
71435;SDS011;59251;51.326;12.370;2022-11-11T11:37:56;6.15;;;0.88;;
71435;SDS011;59251;51.326;12.370;2022-11-11T11:40:22;6.07;;;1.00;;
71435;SDS011;59251;51.326;12.370;2022-11-11T11:42:47;7.53;;;0.90;;
71435;SDS011;59251;51.326;12.370;2022-11-11T11:50:36;5.30;;;0.85;;
71435;SDS011;59251;51.326;12.370;2022-11-11T11:53:26;7.03;;;0.70;;
71435;SDS011;59251;51.326;12.370;2022-11-11T11:56:13;4.60;;;0.80;;
71435;SDS011;59251;51.326;12.370;2022-11-11T12:04:50;6.05;;;0.80;;
71435;SDS011;59251;51.326;12.370;2022-11-11T12:07:37;5.75;;;1.00;;
71435;SDS011;59251;51.326;12.370;2022-11-11T12:13:33;6.53;;;0.77;;
71435;SDS011;59251;51.326;12.370;2022-11-11T12:15:55;6.03;;;0.80;;
71435;SDS011;59251;51.326;12.370;2022-11-11T12:23:44;6.80;;;1.40;;
71435;SDS011;59251;51.326;12.370;2022-11-11T12:29:08;6.20;;;0.98;;
71435;SDS011;59251;51.326;12.370;2022-11-11T12:37:07;7.47;;;0.90;;
71435;SDS011;59251;51.326;12.370;2022-11-11T12:45:25;6.68;;;0.85;;
71435;SDS011;59251;51.326;12.370;2022-11-11T12:53:28;5.47;;;0.73;;
71435;SDS011;59251;51.326;12.370;2022-11-11T13:04:25;7.72;;;0.90;;
71435;SDS011;59251;51.326;12.370;2022-11-11T13:12:30;5.90;;;0.88;;
71435;SDS011;59251;51.326;12.370;2022-11-11T13:15:20;5.45;;;0.82;;
71435;SDS011;59251;51.326;12.370;2022-11-11T13:17:47;6.32;;;1.10;;
71435;SDS011;59251;51.326;12.370;2022-11-11T13:22:59;5.25;;;0.85;;
71435;SDS011;59251;51.326;12.370;2022-11-11T13:25:26;5.03;;;0.80;;
71435;SDS011;59251;51.326;12.370;2022-11-11T13:27:58;5.50;;;0.90;;
71435;SDS011;59251;51.326;12.370;2022-11-11T13:33:13;5.00;;;0.95;;
71435;SDS011;59251;51.326;12.370;2022-11-11T13:35:42;6.07;;;0.60;;
71435;SDS011;59251;51.326;12.370;2022-11-11T13:38:57;7.45;;;1.10;;
71435;SDS011;59251;51.326;12.370;2022-11-11T13:41:00;8.00;;;1.10;;
71435;SDS011;59251;51.326;12.370;2022-11-11T13:43:35;6.85;;;1.00;;
71435;SDS011;59251;51.326;12.370;2022-11-11T13:48:56;6.33;;;1.17;;
71435;SDS011;59251;51.326;12.370;2022-11-11T13:51:24;8.35;;;1.15;;
71435;SDS011;59251;51.326;12.370;2022-11-11T13:53:50;5.82;;;1.40;;
71435;SDS011;59251;51.326;12.370;2022-11-11T13:56:23;6.60;;;1.20;;
71435;SDS011;59251;51.326;12.370;2022-11-11T13:58:52;6.82;;;1.10;;
71435;SDS011;59251;51.326;12.370;2022-11-11T14:01:19;5.40;;;1.27;;
71435;SDS011;59251;51.326;12.370;2022-11-11T14:13:51;5.18;;;1.00;;
71435;SDS011;59251;51.326;12.370;2022-11-11T14:21:57;7.68;;;1.25;;
71435;SDS011;59251;51.326;12.370;2022-11-11T14:24:34;6.50;;;1.33;;
71435;SDS011;59251;51.326;12.370;2022-11-11T14:29:36;6.00;;;0.98;;
71435;SDS011;59251;51.326;12.370;2022-11-11T14:35:12;6.57;;;0.90;;
71435;SDS011;59251;51.326;12.370;2022-11-11T14:40:41;9.95;;;1.30;;
71435;SDS011;59251;51.326;12.370;2022-11-11T14:51:36;9.55;;;1.80;;
71435;SDS011;59251;51.326;12.370;2022-11-11T14:54:15;8.48;;;1.92;;
71435;SDS011;59251;51.326;12.370;2022-11-11T14:56:52;7.47;;;1.80;;
71435;SDS011;59251;51.326;12.370;2022-11-11T14:59:21;8.93;;;1.50;;
71435;SDS011;59251;51.326;12.370;2022-11-11T15:01:49;6.50;;;1.70;;
71435;SDS011;59251;51.326;12.370;2022-11-11T15:04:17;6.93;;;1.85;;
71435;SDS011;59251;51.326;12.370;2022-11-11T15:06:45;7.45;;;1.80;;
71435;SDS011;59251;51.326;12.370;2022-11-11T15:09:28;7.00;;;1.92;;
71435;SDS011;59251;51.326;12.370;2022-11-11T15:28:50;7.53;;;1.67;;
71435;SDS011;59251;51.326;12.370;2022-11-11T15:34:33;12.07;;;2.83;;
71435;SDS011;59251;51.326;12.370;2022-11-11T15:37:10;11.82;;;2.00;;
71435;SDS011;59251;51.326;12.370;2022-11-11T15:39:45;9.70;;;2.50;;
71435;SDS011;59251;51.326;12.370;2022-11-11T15:42:36;8.30;;;2.25;;
71435;SDS011;59251;51.326;12.370;2022-11-11T15:45:11;8.63;;;2.03;;
71435;SDS011;59251;51.326;12.370;2022-11-11T15:47:45;8.98;;;1.73;;
71435;SDS011;59251;51.326;12.370;2022-11-11T15:52:57;9.10;;;3.17;;
71435;SDS011;59251;51.326;12.370;2022-11-11T15:55:28;10.07;;;3.10;;
71435;SDS011;59251;51.326;12.370;2022-11-11T15:58:14;8.00;;;2.85;;
71435;SDS011;59251;51.326;12.370;2022-11-11T16:00:41;8.07;;;2.92;;
71435;SDS011;59251;51.326;12.370;2022-11-11T16:03:16;15.73;;;6.28;;
71435;SDS011;59251;51.326;12.370;2022-11-11T16:06:05;9.83;;;4.07;;
71435;SDS011;59251;51.326;12.370;2022-11-11T16:08:34;9.88;;;4.03;;
71435;SDS011;59251;51.326;12.370;2022-11-11T16:10:59;10.93;;;3.53;;
71435;SDS011;59251;51.326;12.370;2022-11-11T16:14:01;13.90;;;4.22;;
71435;SDS011;59251;51.326;12.370;2022-11-11T16:16:21;13.88;;;5.22;;
71435;SDS011;59251;51.326;12.370;2022-11-11T16:18:57;11.68;;;4.60;;
71435;SDS011;59251;51.326;12.370;2022-11-11T16:21:34;13.20;;;3.40;;
71435;SDS011;59251;51.326;12.370;2022-11-11T16:24:22;10.75;;;3.53;;
71435;SDS011;59251;51.326;12.370;2022-11-11T16:26:54;11.60;;;3.65;;
71435;SDS011;59251;51.326;12.370;2022-11-11T16:29:20;10.30;;;3.58;;
71435;SDS011;59251;51.326;12.370;2022-11-11T16:31:47;11.70;;;4.07;;
71435;SDS011;59251;51.326;12.370;2022-11-11T16:34:23;16.63;;;4.00;;
71435;SDS011;59251;51.326;12.370;2022-11-11T16:37:07;10.38;;;3.50;;
71435;SDS011;59251;51.326;12.370;2022-11-11T16:39:35;15.20;;;5.30;;
71435;SDS011;59251;51.326;12.370;2022-11-11T16:42:04;11.43;;;4.80;;
71435;SDS011;59251;51.326;12.370;2022-11-11T16:44:40;11.57;;;4.45;;
71435;SDS011;59251;51.326;12.370;2022-11-11T16:55:32;14.48;;;4.18;;
71435;SDS011;59251;51.326;12.370;2022-11-11T16:58:10;11.00;;;4.40;;
71435;SDS011;59251;51.326;12.370;2022-11-11T17:00:46;11.35;;;4.22;;
71435;SDS011;59251;51.326;12.370;2022-11-11T17:05:51;11.73;;;4.50;;
71435;SDS011;59251;51.326;12.370;2022-11-11T17:10:56;11.98;;;4.63;;
71435;SDS011;59251;51.326;12.370;2022-11-11T17:13:22;12.20;;;4.40;;
71435;SDS011;59251;51.326;12.370;2022-11-11T17:15:50;12.73;;;4.75;;
71435;SDS011;59251;51.326;12.370;2022-11-11T17:18:17;14.27;;;5.00;;
71435;SDS011;59251;51.326;12.370;2022-11-11T17:20:42;15.40;;;5.50;;
71435;SDS011;59251;51.326;12.370;2022-11-11T17:23:08;15.40;;;5.07;;
71435;SDS011;59251;51.326;12.370;2022-11-11T17:25:33;15.35;;;5.22;;
71435;SDS011;59251;51.326;12.370;2022-11-11T17:27:59;16.15;;;5.07;;
71435;SDS011;59251;51.326;12.370;2022-11-11T17:30:24;14.13;;;5.77;;
71435;SDS011;59251;51.326;12.370;2022-11-11T17:32:50;12.70;;;4.70;;
71435;SDS011;59251;51.326;12.370;2022-11-11T17:35:15;18.03;;;5.80;;
71435;SDS011;59251;51.326;12.370;2022-11-11T17:37:41;13.85;;;6.18;;
71435;SDS011;59251;51.326;12.370;2022-11-11T17:40:07;14.87;;;5.70;;